Simpson, Kansas
Current Conditions -  °F | °C
As of 5:55 AM on Wednesday 28 Jan 2015 (Local Time) from KCNK Reporting Station
Clear Clear  
Wind Chill: 39°   Ceiling: Unl
Heat Index: 39°   Visibility: 10mi
Dew Point: 32°   Wind: 3mph
Humidity: 76%   Direction: 170°S
Pressure: 29.83"   Gusts: NA
Location:  39.39°N, 97.93°W
Report Text: KCNK 281155Z AUTO 17003KT 10SM CLR 04/00 A2983 RMK AO2 SLP103 T00390000 10072 20011 56012
Loading
Personal Weather Stations






























Interactive Weather Map New forecast layout! Learn more

10-Day Weather Forecast

Advertisements
Track Severe Weather on mobile